createdAt,value
2023-01-19T00:01:33.297Z,2.76
2023-01-19T00:04:01.022Z,2.84
2023-01-19T00:06:28.776Z,2.82
2023-01-19T00:08:56.523Z,2.81
2023-01-19T00:11:25.564Z,2.92
2023-01-19T00:13:53.593Z,2.87
2023-01-19T00:16:21.955Z,2.79
2023-01-19T00:18:51.843Z,2.75
2023-01-19T00:21:20.286Z,2.77
2023-01-19T00:23:48.543Z,2.82
2023-01-19T00:26:17.043Z,2.78
2023-01-19T00:28:46.145Z,2.71
2023-01-19T00:31:13.881Z,2.71
2023-01-19T00:33:41.578Z,2.66
2023-01-19T00:36:10.297Z,2.83
2023-01-19T00:38:38.016Z,2.73
2023-01-19T00:46:52.865Z,2.81
2023-01-19T00:49:20.546Z,2.68
2023-01-19T00:51:48.134Z,2.66
2023-01-19T00:54:15.739Z,2.73
2023-01-19T00:56:43.283Z,2.74
2023-01-19T00:59:12.380Z,2.69
2023-01-19T01:04:39.877Z,2.69
2023-01-19T01:07:07.560Z,2.61
2023-01-19T01:09:35.265Z,2.70
2023-01-19T01:12:03.849Z,2.73
2023-01-19T01:14:35.262Z,2.74
2023-01-19T01:17:03.011Z,2.78
2023-01-19T01:19:30.675Z,2.67
2023-01-19T01:21:58.247Z,2.56
2023-01-19T01:24:25.863Z,2.66
2023-01-19T01:26:53.430Z,2.74
2023-01-19T01:29:21.303Z,2.70
2023-01-19T01:31:50.319Z,2.78
2023-01-19T01:34:18.180Z,2.63
2023-01-19T01:36:45.750Z,2.69
2023-01-19T01:39:13.305Z,2.91
2023-01-19T01:41:40.874Z,2.84
2023-01-19T01:44:46.666Z,2.60
2023-01-19T01:47:16.826Z,2.69
2023-01-19T01:49:45.702Z,2.67
2023-01-19T01:52:15.990Z,2.70
2023-01-19T01:54:44.100Z,2.65
2023-01-19T01:57:13.087Z,2.66
2023-01-19T01:59:45.675Z,2.72
2023-01-19T02:02:19.625Z,2.68
2023-01-19T02:04:51.989Z,2.73
2023-01-19T02:07:29.975Z,2.65
2023-01-19T02:09:57.639Z,2.34
2023-01-19T02:12:25.285Z,2.63
2023-01-19T02:14:52.861Z,2.58
2023-01-19T02:17:22.315Z,2.63
2023-01-19T02:19:50.157Z,2.62
2023-01-19T02:22:25.833Z,2.81
2023-01-19T02:24:54.941Z,2.58
2023-01-19T02:27:22.616Z,2.61
2023-01-19T02:29:50.365Z,2.61
2023-01-19T02:32:18.136Z,2.51
2023-01-19T02:34:45.852Z,2.57
2023-01-19T02:37:18.259Z,2.55
2023-01-19T02:39:52.031Z,2.48
2023-01-19T02:42:26.768Z,2.49
2023-01-19T02:44:56.919Z,2.43
2023-01-19T02:47:24.683Z,2.35
2023-01-19T02:49:56.197Z,2.32
2023-01-19T02:52:25.457Z,2.28
2023-01-19T02:55:08.602Z,2.31
2023-01-19T02:57:52.963Z,2.16
2023-01-19T03:00:36.991Z,2.06
2023-01-19T03:03:24.883Z,2.27
2023-01-19T03:06:03.270Z,2.20
2023-01-19T03:08:47.778Z,2.23
2023-01-19T03:11:16.127Z,2.32
2023-01-19T03:13:50.670Z,2.44
2023-01-19T03:16:22.883Z,2.41
2023-01-19T03:18:55.583Z,2.35
2023-01-19T03:21:27.469Z,2.23
2023-01-19T03:24:01.359Z,1.98
2023-01-19T03:26:37.410Z,2.09
2023-01-19T03:29:11.393Z,2.27
2023-01-19T03:31:43.186Z,2.21
2023-01-19T03:34:14.993Z,2.17
2023-01-19T03:36:46.347Z,2.15
2023-01-19T03:39:21.757Z,2.07
2023-01-19T03:41:54.872Z,2.09
2023-01-19T03:44:28.386Z,2.14
2023-01-19T03:46:59.318Z,1.89
2023-01-19T03:49:30.293Z,1.98
2023-01-19T03:51:59.085Z,1.85
2023-01-19T03:54:27.280Z,1.86
2023-01-19T03:56:54.956Z,1.79
2023-01-19T03:59:23.961Z,1.95
2023-01-19T04:01:51.630Z,2.02
2023-01-19T04:04:19.311Z,2.02
2023-01-19T04:06:47.187Z,1.92
2023-01-19T04:09:14.881Z,1.97
2023-01-19T04:11:42.664Z,2.05
2023-01-19T04:14:10.255Z,2.14
2023-01-19T04:16:42.058Z,2.17
2023-01-19T04:19:09.722Z,2.03
2023-01-19T04:21:37.442Z,1.72
2023-01-19T04:24:05.754Z,1.57
2023-01-19T04:26:33.421Z,1.58
2023-01-19T04:29:01.181Z,1.47
2023-01-19T04:31:28.823Z,1.43
2023-01-19T04:33:57.862Z,1.68
2023-01-19T04:36:25.559Z,1.77
2023-01-19T04:38:53.428Z,1.66
2023-01-19T04:41:21.136Z,1.71
2023-01-19T04:43:48.843Z,1.79
2023-01-19T04:46:16.640Z,1.90
2023-01-19T04:48:44.285Z,1.97
2023-01-19T04:51:13.276Z,1.97
2023-01-19T04:53:41.241Z,1.82
2023-01-19T04:56:08.970Z,1.91
2023-01-19T04:58:36.659Z,1.81
2023-01-19T05:01:07.556Z,1.82
2023-01-19T05:03:35.192Z,1.75
2023-01-19T05:06:03.785Z,1.84
2023-01-19T05:08:33.091Z,1.63
2023-01-19T05:11:00.781Z,1.39
2023-01-19T05:13:28.501Z,1.41
2023-01-19T05:15:56.256Z,1.34
2023-01-19T05:18:24.033Z,1.27
2023-01-19T05:20:51.958Z,1.23
2023-01-19T05:23:19.638Z,1.08
2023-01-19T05:25:48.692Z,1.07
2023-01-19T05:28:16.354Z,0.87
2023-01-19T05:30:44.107Z,0.85
2023-01-19T05:33:11.837Z,1.02
2023-01-19T05:35:40.709Z,0.94
2023-01-19T05:38:08.375Z,0.99
2023-01-19T05:40:36.067Z,0.96
2023-01-19T05:43:05.510Z,0.99
2023-01-19T05:45:36.195Z,0.97
2023-01-19T05:48:04.359Z,0.92
2023-01-19T05:50:32.361Z,0.94
2023-01-19T05:53:00.728Z,1.03
2023-01-19T05:55:29.493Z,1.07
2023-01-19T05:57:57.164Z,0.94
2023-01-19T06:00:26.350Z,0.91
2023-01-19T06:02:54.028Z,0.94
2023-01-19T06:05:21.743Z,0.81
2023-01-19T06:07:49.455Z,0.99
2023-01-19T06:10:17.199Z,1.00
2023-01-19T06:12:44.906Z,1.06
2023-01-19T06:15:12.593Z,1.06
2023-01-19T06:17:41.501Z,1.13
2023-01-19T06:20:10.382Z,1.24
2023-01-19T06:22:37.938Z,1.41
2023-01-19T06:25:06.719Z,1.49
2023-01-19T06:27:34.364Z,1.62
2023-01-19T06:30:02.190Z,1.59
2023-01-19T06:32:29.826Z,1.59
2023-01-19T06:34:58.750Z,1.71
2023-01-19T06:37:26.585Z,1.60
2023-01-19T06:39:55.551Z,1.63
2023-01-19T06:42:23.516Z,1.54
2023-01-19T06:44:51.235Z,1.64
2023-01-19T06:47:18.964Z,1.63
2023-01-19T06:49:46.746Z,1.73
2023-01-19T06:52:16.154Z,1.73
2023-01-19T06:54:43.976Z,1.78
2023-01-19T06:57:13.633Z,1.79
2023-01-19T06:59:41.757Z,1.88
2023-01-19T07:02:27.465Z,1.76
2023-01-19T07:04:55.713Z,1.68
2023-01-19T07:07:24.812Z,1.92
2023-01-19T07:09:53.799Z,1.76
2023-01-19T07:12:22.427Z,1.92
2023-01-19T07:14:50.379Z,1.99
2023-01-19T07:17:18.273Z,1.91
2023-01-19T07:19:46.371Z,1.92
2023-01-19T07:22:14.257Z,2.02
2023-01-19T07:24:43.203Z,1.98
2023-01-19T07:27:10.813Z,2.05
2023-01-19T07:29:38.389Z,2.03
2023-01-19T07:32:06.305Z,2.10
2023-01-19T07:34:34.050Z,2.20
2023-01-19T07:37:01.764Z,2.12
2023-01-19T07:39:29.331Z,2.10
2023-01-19T07:41:58.246Z,1.95
2023-01-19T07:44:25.849Z,2.07
2023-01-19T07:46:53.443Z,2.15
2023-01-19T07:49:21.011Z,2.26
2023-01-19T07:51:48.667Z,2.02
2023-01-19T07:54:16.345Z,2.22
2023-01-19T07:56:44.049Z,2.33
2023-01-19T07:59:13.660Z,2.45
2023-01-19T08:01:41.399Z,2.51
2023-01-19T08:04:09.143Z,2.57
2023-01-19T08:06:39.413Z,2.50
2023-01-19T08:09:07.171Z,2.49
2023-01-19T08:11:34.848Z,2.45
2023-01-19T08:14:02.498Z,2.38
2023-01-19T08:16:31.464Z,2.45
2023-01-19T08:18:59.366Z,2.55
2023-01-19T08:21:28.011Z,2.81
2023-01-19T08:23:57.236Z,2.79
2023-01-19T08:26:28.698Z,2.93
2023-01-19T08:28:58.752Z,2.84
2023-01-19T08:31:27.058Z,2.77
2023-01-19T08:33:56.105Z,2.92
2023-01-19T08:36:23.998Z,2.95
2023-01-19T08:38:52.372Z,2.99
2023-01-19T08:41:20.118Z,3.13
2023-01-19T08:43:47.782Z,3.16
2023-01-19T08:46:17.800Z,2.87
2023-01-19T08:48:45.437Z,3.04
2023-01-19T08:51:14.468Z,3.13
2023-01-19T08:53:42.943Z,3.09
2023-01-19T08:56:11.068Z,3.22
2023-01-19T08:58:39.473Z,3.24
2023-01-19T09:01:07.920Z,3.22
2023-01-19T09:03:35.997Z,3.42
2023-01-19T09:06:05.859Z,3.30
2023-01-19T09:08:34.958Z,3.32
2023-01-19T09:11:03.137Z,4.68
2023-01-19T09:13:30.867Z,6.52
2023-01-19T09:15:58.669Z,7.53
2023-01-19T09:18:26.336Z,7.74
2023-01-19T09:20:57.484Z,8.41
2023-01-19T09:23:25.155Z,8.46
2023-01-19T09:25:58.706Z,8.91
2023-01-19T09:28:26.798Z,8.85
2023-01-19T09:30:55.402Z,9.33
2023-01-19T09:33:24.675Z,9.02
2023-01-19T09:35:52.622Z,9.55
2023-01-19T09:38:20.968Z,10.06
2023-01-19T09:40:51.537Z,9.79
2023-01-19T09:43:33.565Z,10.24
2023-01-19T09:46:05.240Z,10.16
2023-01-19T09:48:43.267Z,9.87
2023-01-19T09:51:16.803Z,10.24
2023-01-19T09:53:52.951Z,10.59
2023-01-19T09:56:20.837Z,10.98
2023-01-19T09:58:51.261Z,10.84
2023-01-19T10:01:38.072Z,10.97
2023-01-19T10:04:26.621Z,10.52
2023-01-19T10:07:06.602Z,11.15
2023-01-19T10:09:47.552Z,10.65
2023-01-19T10:12:32.823Z,9.20
2023-01-19T10:15:15.025Z,8.17
2023-01-19T10:17:58.893Z,7.60
2023-01-19T10:20:32.584Z,6.90
2023-01-19T10:23:04.781Z,6.45
2023-01-19T10:25:34.312Z,6.26
2023-01-19T10:28:01.932Z,5.79
2023-01-19T10:30:31.222Z,5.50
2023-01-19T10:32:59.608Z,5.48
2023-01-19T10:35:29.328Z,5.41
2023-01-19T10:38:02.938Z,5.55
2023-01-19T10:40:37.375Z,6.56
2023-01-19T10:43:35.493Z,7.58
2023-01-19T10:46:15.018Z,6.46
2023-01-19T10:48:44.185Z,6.37
2023-01-19T10:51:12.326Z,5.68
2023-01-19T10:53:43.750Z,5.91
2023-01-19T10:56:16.173Z,7.41
2023-01-19T10:58:44.007Z,8.10
2023-01-19T11:01:21.928Z,7.18
2023-01-19T11:03:50.507Z,6.62
2023-01-19T11:06:25.571Z,5.86
2023-01-19T11:09:10.692Z,6.04
2023-01-19T11:11:48.762Z,7.48
2023-01-19T11:14:20.401Z,7.59
2023-01-19T11:16:52.960Z,8.83
2023-01-19T11:19:26.520Z,10.16
2023-01-19T11:22:15.152Z,10.40
2023-01-19T11:24:44.164Z,10.79
2023-01-19T11:27:16.728Z,10.37
2023-01-19T11:29:49.382Z,10.61
2023-01-19T11:32:22.799Z,11.41
2023-01-19T11:34:50.381Z,12.03
2023-01-19T11:37:31.558Z,11.77
2023-01-19T11:40:01.004Z,11.36
2023-01-19T11:42:33.104Z,11.85
2023-01-19T11:45:07.284Z,12.15
2023-01-19T11:47:42.124Z,12.44
2023-01-19T11:50:22.824Z,12.43
2023-01-19T11:52:57.551Z,12.26
2023-01-19T11:55:38.708Z,12.16
2023-01-19T11:58:06.579Z,11.09
2023-01-19T12:00:39.405Z,11.31
2023-01-19T12:03:17.624Z,9.45
2023-01-19T12:05:48.382Z,9.99
2023-01-19T12:08:22.422Z,11.18
2023-01-19T12:10:55.404Z,11.35
2023-01-19T12:13:25.958Z,11.23
2023-01-19T12:15:59.704Z,11.42
2023-01-19T12:18:36.093Z,10.91
2023-01-19T12:21:05.039Z,10.91
2023-01-19T12:23:47.494Z,11.09
2023-01-19T12:26:28.630Z,10.39
2023-01-19T12:29:00.536Z,10.91
2023-01-19T12:31:28.415Z,11.16
2023-01-19T12:34:39.411Z,10.88
2023-01-19T12:37:44.627Z,10.30
2023-01-19T12:40:26.259Z,10.65
2023-01-19T12:43:00.847Z,10.61
2023-01-19T12:45:32.139Z,10.53
2023-01-19T12:48:01.327Z,10.67
2023-01-19T12:50:36.461Z,10.35
2023-01-19T12:53:18.641Z,9.50
2023-01-19T12:55:59.134Z,9.79
2023-01-19T12:58:27.451Z,9.91
2023-01-19T13:01:14.047Z,10.14
2023-01-19T13:03:56.994Z,10.19
2023-01-19T13:06:57.995Z,9.63
2023-01-19T13:09:31.342Z,8.93
2023-01-19T13:12:22.083Z,9.39
2023-01-19T13:14:50.056Z,9.35
2023-01-19T13:17:27.944Z,8.71
2023-01-19T13:20:22.522Z,8.46
2023-01-19T13:23:17.538Z,8.42
2023-01-19T13:25:58.885Z,8.06
2023-01-19T13:28:32.630Z,7.74
2023-01-19T13:31:02.416Z,7.43
2023-01-19T13:33:42.123Z,7.59
2023-01-19T13:36:19.965Z,7.52
2023-01-19T13:38:50.396Z,6.67
2023-01-19T13:41:23.694Z,6.90
2023-01-19T13:44:00.296Z,6.92
2023-01-19T13:46:30.386Z,5.61
2023-01-19T13:49:04.216Z,5.79
2023-01-19T13:51:31.920Z,5.79
2023-01-19T13:54:00.470Z,5.73
2023-01-19T13:56:30.444Z,5.90
2023-01-19T13:59:04.810Z,5.45
2023-01-19T14:01:32.558Z,5.60
2023-01-19T14:04:00.790Z,5.02
2023-01-19T14:06:35.711Z,5.26
2023-01-19T14:09:08.802Z,5.42
2023-01-19T14:11:38.056Z,5.72
2023-01-19T14:14:20.884Z,5.69
2023-01-19T14:16:48.428Z,5.48
2023-01-19T14:19:16.012Z,5.17
2023-01-19T14:21:43.566Z,5.27
2023-01-19T14:24:17.516Z,5.15
2023-01-19T14:26:48.594Z,4.91
2023-01-19T14:29:25.289Z,4.54
2023-01-19T14:32:11.768Z,4.55
2023-01-19T14:34:42.273Z,4.58
2023-01-19T14:37:20.005Z,4.60
2023-01-19T14:39:49.696Z,4.26
2023-01-19T14:42:24.549Z,4.48
2023-01-19T14:44:55.117Z,4.52
2023-01-19T14:47:28.883Z,4.56
2023-01-19T14:50:00.641Z,4.53
2023-01-19T14:52:33.557Z,4.68
2023-01-19T14:55:03.943Z,4.44
2023-01-19T14:57:33.649Z,4.43
2023-01-19T15:00:02.470Z,4.64
2023-01-19T15:02:30.181Z,4.29
2023-01-19T15:04:57.893Z,4.01
2023-01-19T15:07:25.571Z,4.32
2023-01-19T15:09:53.785Z,4.30
2023-01-19T15:12:27.819Z,4.01
2023-01-19T15:18:24.852Z,3.94
2023-01-19T15:20:52.494Z,4.05
2023-01-19T15:26:43.459Z,4.30
2023-01-19T15:29:26.041Z,4.35
2023-01-19T15:31:53.647Z,4.45
2023-01-19T15:34:22.726Z,4.47
2023-01-19T15:36:50.338Z,4.32
2023-01-19T15:39:17.879Z,4.29
2023-01-19T15:41:45.456Z,4.22
2023-01-19T15:44:15.546Z,4.23
2023-01-19T15:46:43.136Z,4.07
2023-01-19T15:49:10.937Z,4.21
2023-01-19T15:51:39.833Z,3.92
2023-01-19T15:54:13.020Z,4.20
2023-01-19T15:56:41.329Z,4.22
2023-01-19T15:59:09.083Z,4.17
2023-01-19T16:01:36.932Z,4.24
2023-01-19T16:04:07.203Z,4.05
2023-01-19T16:06:34.950Z,4.18
2023-01-19T16:09:04.327Z,4.25
2023-01-19T16:11:34.268Z,4.29
2023-01-19T16:14:01.917Z,4.35
2023-01-19T16:16:29.697Z,4.34
2023-01-19T16:18:57.757Z,4.24
2023-01-19T16:21:25.791Z,4.26
2023-01-19T16:23:54.141Z,4.21
2023-01-19T16:26:31.431Z,4.18
2023-01-19T16:29:01.170Z,4.16
2023-01-19T16:31:29.355Z,4.29
2023-01-19T16:33:57.154Z,4.17
2023-01-19T16:36:27.454Z,4.13
2023-01-19T16:38:58.894Z,4.18
2023-01-19T16:41:26.932Z,3.80
2023-01-19T16:43:57.657Z,3.97
2023-01-19T16:46:28.241Z,3.84
2023-01-19T16:48:59.673Z,3.65
2023-01-19T16:51:28.286Z,3.81
2023-01-19T16:53:56.991Z,3.71
2023-01-19T16:56:24.789Z,3.86
2023-01-19T16:58:53.479Z,3.67
2023-01-19T17:01:24.012Z,3.64
2023-01-19T17:03:51.793Z,3.69
2023-01-19T17:06:21.925Z,3.69
2023-01-19T17:08:50.801Z,3.68
2023-01-19T17:11:20.574Z,3.75
2023-01-19T17:13:49.028Z,3.81
2023-01-19T17:16:16.720Z,3.75
2023-01-19T17:18:45.981Z,3.76
2023-01-19T17:21:13.626Z,3.69
2023-01-19T17:23:43.703Z,3.64
2023-01-19T17:26:11.445Z,3.68
2023-01-19T17:28:39.756Z,3.76
2023-01-19T17:31:09.293Z,3.76
2023-01-19T17:33:38.288Z,3.69
2023-01-19T17:36:10.561Z,3.83
2023-01-19T17:38:38.726Z,3.89
2023-01-19T17:41:12.633Z,3.92
2023-01-19T17:43:40.373Z,3.90
2023-01-19T17:46:08.446Z,3.85
2023-01-19T17:48:36.166Z,3.56
2023-01-19T17:51:05.230Z,3.68
2023-01-19T17:53:36.514Z,3.62
2023-01-19T17:56:05.192Z,3.54
2023-01-19T17:58:33.046Z,3.63
2023-01-19T18:01:08.708Z,3.52
2023-01-19T18:03:36.598Z,3.49
2023-01-19T18:06:04.813Z,3.33
2023-01-19T18:08:34.300Z,3.18
2023-01-19T18:11:03.038Z,3.02
2023-01-19T18:13:30.669Z,2.83
2023-01-19T18:15:59.323Z,2.94
2023-01-19T18:18:27.694Z,3.03
2023-01-19T18:20:58.422Z,3.15
2023-01-19T18:23:26.391Z,3.15
2023-01-19T18:26:03.086Z,2.89
2023-01-19T18:28:31.491Z,2.81
2023-01-19T18:30:59.438Z,2.66
2023-01-19T18:33:28.989Z,2.70
2023-01-19T18:35:56.717Z,2.46
2023-01-19T18:38:24.400Z,2.51
2023-01-19T18:41:01.484Z,2.46
2023-01-19T18:43:29.283Z,2.51
2023-01-19T18:45:57.143Z,2.52
2023-01-19T18:48:25.266Z,2.48
2023-01-19T18:50:53.248Z,2.14
2023-01-19T18:53:22.425Z,2.46
2023-01-19T18:55:52.322Z,2.25
2023-01-19T18:58:22.442Z,2.37
2023-01-19T19:00:50.727Z,2.13
2023-01-19T19:03:18.424Z,2.29
2023-01-19T19:05:46.102Z,2.15
2023-01-19T19:08:13.872Z,1.91
2023-01-19T19:10:43.151Z,1.75
2023-01-19T19:13:12.773Z,1.71
2023-01-19T19:15:41.800Z,1.67
2023-01-19T19:18:09.453Z,1.55
2023-01-19T19:20:38.370Z,1.62
2023-01-19T19:23:08.523Z,1.31
2023-01-19T19:25:37.067Z,1.38
2023-01-19T19:28:04.978Z,1.48
2023-01-19T19:30:32.646Z,1.63
2023-01-19T19:33:01.613Z,1.82
2023-01-19T19:35:29.220Z,1.81
2023-01-19T19:37:56.779Z,1.88
2023-01-19T19:40:24.793Z,1.97
2023-01-19T19:42:52.750Z,2.01
2023-01-19T19:45:20.459Z,1.58
2023-01-19T19:47:48.281Z,1.41
2023-01-19T19:50:17.642Z,0.93
2023-01-19T19:52:45.262Z,1.06
2023-01-19T19:55:13.602Z,0.97
2023-01-19T19:57:41.396Z,0.74
2023-01-19T20:00:10.233Z,0.89
2023-01-19T20:02:37.996Z,0.97
2023-01-19T20:05:06.443Z,0.94
2023-01-19T20:07:35.390Z,0.86
2023-01-19T20:10:03.173Z,0.99
2023-01-19T20:12:30.742Z,0.93
2023-01-19T20:14:58.327Z,0.98
2023-01-19T20:17:25.925Z,1.06
2023-01-19T20:19:53.495Z,1.02
2023-01-19T20:22:21.049Z,1.14
2023-01-19T20:24:49.993Z,1.26
2023-01-19T20:27:17.611Z,1.12
2023-01-19T20:29:51.602Z,0.98
2023-01-19T20:32:19.454Z,1.18
2023-01-19T20:34:47.274Z,1.26
2023-01-19T20:37:14.977Z,1.40
2023-01-19T20:39:42.534Z,1.53
2023-01-19T20:42:11.630Z,1.57
2023-01-19T20:44:42.199Z,1.57
2023-01-19T20:47:10.061Z,1.71
2023-01-19T20:49:37.768Z,1.56
2023-01-19T20:52:05.359Z,1.52
2023-01-19T20:54:32.982Z,1.50
2023-01-19T20:57:00.554Z,1.43
2023-01-19T20:59:29.627Z,1.50
2023-01-19T21:01:57.386Z,1.67
2023-01-19T21:04:25.175Z,1.29
2023-01-19T21:06:52.740Z,1.18
2023-01-19T21:09:20.321Z,1.06
2023-01-19T21:11:48.071Z,0.95
2023-01-19T21:14:15.786Z,1.08
2023-01-19T21:16:44.915Z,1.02
2023-01-19T21:19:12.674Z,1.03
2023-01-19T21:21:40.290Z,1.05
2023-01-19T21:24:10.837Z,1.07
2023-01-19T21:26:38.460Z,0.85
2023-01-19T21:29:06.032Z,1.03
2023-01-19T21:31:33.605Z,1.07
2023-01-19T21:34:02.677Z,0.97
2023-01-19T21:36:30.253Z,0.87
2023-01-19T21:38:57.953Z,0.70
2023-01-19T21:41:26.460Z,0.90
2023-01-19T21:43:54.163Z,0.84
2023-01-19T21:46:24.606Z,0.90
2023-01-19T21:48:52.245Z,1.04
2023-01-19T21:51:21.308Z,0.84
2023-01-19T21:53:49.866Z,0.89
2023-01-19T21:56:18.334Z,0.92
2023-01-19T21:58:46.146Z,0.85
2023-01-19T22:01:14.300Z,0.82
2023-01-19T22:03:42.477Z,0.75
2023-01-19T22:06:12.268Z,0.87
2023-01-19T22:08:41.644Z,0.89
2023-01-19T22:11:12.127Z,0.98
2023-01-19T22:13:40.421Z,1.11
2023-01-19T22:16:10.979Z,1.03
2023-01-19T22:18:40.932Z,0.85
2023-01-19T22:21:09.649Z,1.03
2023-01-19T22:23:37.817Z,0.86
2023-01-19T22:26:07.965Z,0.81
2023-01-19T22:28:36.079Z,0.87
2023-01-19T22:31:05.906Z,0.72
2023-01-19T22:33:33.928Z,0.67
2023-01-19T22:36:14.046Z,0.53
2023-01-19T22:38:43.864Z,0.56
2023-01-19T22:41:14.913Z,0.48
2023-01-19T22:43:43.563Z,0.31
2023-01-19T22:46:11.699Z,0.31
2023-01-19T22:48:39.314Z,0.27
2023-01-19T22:51:07.363Z,0.28
2023-01-19T22:53:35.070Z,0.28
2023-01-19T22:56:09.992Z,0.36
2023-01-19T22:58:38.958Z,0.30
2023-01-19T23:01:07.571Z,0.27
2023-01-19T23:03:36.180Z,0.21
2023-01-19T23:06:05.313Z,0.01
2023-01-19T23:08:34.091Z,0.03
2023-01-19T23:11:05.091Z,-0.12
2023-01-19T23:13:32.793Z,-0.16
2023-01-19T23:16:02.757Z,-0.40
2023-01-19T23:18:30.510Z,-0.37
2023-01-19T23:21:02.180Z,-0.13
2023-01-19T23:23:29.858Z,0.03
2023-01-19T23:25:59.982Z,0.27
2023-01-19T23:28:27.585Z,0.43
2023-01-19T23:30:55.528Z,0.65
2023-01-19T23:33:25.767Z,0.63
2023-01-19T23:35:54.621Z,0.82
2023-01-19T23:38:22.637Z,0.55
2023-01-19T23:40:50.427Z,0.55
2023-01-19T23:43:18.135Z,0.53
2023-01-19T23:45:45.822Z,0.50
2023-01-19T23:48:13.528Z,0.44
2023-01-19T23:50:42.596Z,0.29
2023-01-19T23:53:10.249Z,0.33
2023-01-19T23:55:37.947Z,0.48
2023-01-19T23:58:05.596Z,0.61
